createdAt,value
2018-09-14T00:00:54.033Z,2.98
2018-09-14T00:03:22.970Z,2.22
2018-09-14T00:05:51.911Z,2.67
2018-09-14T00:08:21.472Z,3.35
2018-09-14T00:10:50.430Z,2.05
2018-09-14T00:13:19.377Z,2.58
2018-09-14T00:15:48.286Z,3.58
2018-09-14T00:18:17.382Z,2.52
2018-09-14T00:20:46.419Z,2.37
2018-09-14T00:23:15.352Z,2.62
2018-09-14T00:25:45.041Z,1.98
2018-09-14T00:28:13.968Z,3.70
2018-09-14T00:30:42.928Z,2.72
2018-09-14T00:33:11.962Z,2.45
2018-09-14T00:35:40.892Z,3.25
2018-09-14T00:38:09.833Z,2.47
2018-09-14T00:40:38.797Z,4.33
2018-09-14T00:43:07.716Z,3.05
2018-09-14T00:45:36.710Z,4.47
2018-09-14T00:48:06.373Z,3.50
2018-09-14T00:50:35.361Z,3.62
2018-09-14T00:53:04.433Z,4.45
2018-09-14T00:55:33.445Z,3.65
2018-09-14T00:58:02.665Z,2.62
2018-09-14T01:00:31.620Z,3.10
2018-09-14T01:03:00.807Z,2.00
2018-09-14T01:05:29.774Z,4.25
2018-09-14T01:07:58.866Z,3.00
2018-09-14T01:10:27.717Z,3.80
2018-09-14T01:12:56.604Z,2.92
2018-09-14T01:15:25.597Z,2.67
2018-09-14T01:17:54.548Z,4.30
2018-09-14T01:20:23.470Z,4.30
2018-09-14T01:22:52.513Z,4.53
2018-09-14T01:25:21.470Z,4.80
2018-09-14T01:27:50.574Z,3.62
2018-09-14T01:30:19.979Z,4.30
2018-09-14T01:32:48.921Z,6.12
2018-09-14T01:35:23.277Z,4.50
2018-09-14T01:37:52.276Z,3.70
2018-09-14T01:40:21.255Z,4.30
2018-09-14T01:42:50.354Z,5.75
2018-09-14T01:45:19.353Z,3.62
2018-09-14T01:47:48.253Z,3.92
2018-09-14T01:50:17.279Z,4.03
2018-09-14T01:52:46.220Z,5.17
2018-09-14T01:55:15.288Z,5.45
2018-09-14T01:57:44.270Z,3.77
2018-09-14T02:00:13.168Z,5.45
2018-09-14T02:02:42.150Z,5.08
2018-09-14T02:05:11.092Z,8.53
2018-09-14T02:07:40.050Z,11.03
2018-09-14T02:10:09.020Z,10.90
2018-09-14T02:12:37.966Z,11.33
2018-09-14T02:15:07.278Z,10.20
2018-09-14T02:17:36.224Z,13.32
2018-09-14T02:20:05.660Z,12.80
2018-09-14T02:22:34.632Z,14.23
2018-09-14T02:25:03.903Z,15.30
2018-09-14T02:27:33.147Z,14.05
2018-09-14T02:30:02.118Z,14.68
2018-09-14T02:32:31.345Z,15.48
2018-09-14T02:35:00.377Z,12.53
2018-09-14T02:37:29.428Z,16.05
2018-09-14T02:39:58.405Z,18.35
2018-09-14T02:42:27.364Z,17.23
2018-09-14T02:44:56.446Z,16.65
2018-09-14T02:47:25.388Z,18.25
2018-09-14T02:49:54.465Z,18.62
2018-09-14T02:52:23.397Z,17.87
2018-09-14T02:54:52.362Z,20.05
2018-09-14T02:57:21.463Z,19.57
2018-09-14T02:59:50.404Z,21.05
2018-09-14T03:02:19.333Z,17.67
2018-09-14T03:04:48.255Z,21.12
2018-09-14T03:09:52.655Z,21.25
2018-09-14T03:12:21.643Z,22.07
2018-09-14T03:14:50.676Z,22.37
2018-09-14T03:17:19.657Z,23.32
2018-09-14T03:19:48.621Z,23.65
2018-09-14T03:22:17.545Z,21.35
2018-09-14T03:24:46.494Z,20.35
2018-09-14T03:27:15.435Z,21.10
2018-09-14T03:29:44.394Z,20.10
2018-09-14T03:32:13.360Z,21.73
2018-09-14T03:34:42.493Z,26.30
2018-09-14T03:37:11.506Z,22.37
2018-09-14T03:39:40.482Z,23.12
2018-09-14T03:42:09.444Z,20.57
2018-09-14T03:44:38.731Z,24.15
2018-09-14T03:47:07.918Z,22.75
2018-09-14T03:49:37.235Z,20.80
2018-09-14T03:52:06.198Z,23.18
2018-09-14T03:54:35.978Z,24.57
2018-09-14T03:57:06.180Z,20.57
2018-09-14T03:59:37.056Z,24.05
2018-09-14T04:02:06.974Z,22.98
2018-09-14T04:04:36.581Z,24.85
2018-09-14T04:07:06.533Z,24.00
2018-09-14T04:09:35.434Z,21.27
2018-09-14T04:12:04.742Z,20.82
2018-09-14T04:14:33.694Z,24.18
2018-09-14T04:17:02.644Z,25.25
2018-09-14T04:19:31.627Z,27.75
2018-09-14T04:22:00.626Z,30.77
2018-09-14T04:24:29.565Z,28.67
2018-09-14T04:26:58.512Z,28.55
2018-09-14T04:29:27.497Z,23.18
2018-09-14T04:31:56.428Z,30.95
2018-09-14T04:34:25.399Z,24.98
2018-09-14T04:36:54.579Z,21.33
2018-09-14T04:39:23.529Z,26.05
2018-09-14T04:41:52.487Z,26.30
2018-09-14T04:44:21.433Z,39.18
2018-09-14T04:46:50.361Z,32.93
2018-09-14T04:49:19.322Z,32.65
2018-09-14T04:51:48.439Z,30.57
2018-09-14T04:54:17.365Z,31.82
2018-09-14T04:56:46.322Z,32.38
2018-09-14T04:59:15.322Z,34.30
2018-09-14T05:01:44.558Z,36.23
2018-09-14T05:04:13.507Z,40.17
2018-09-14T05:06:42.480Z,32.65
2018-09-14T05:09:11.395Z,41.95
2018-09-14T05:11:40.484Z,42.38
2018-09-14T05:14:09.497Z,45.33
2018-09-14T05:16:38.643Z,37.08
2018-09-14T05:19:07.641Z,39.27
2018-09-14T05:21:37.248Z,40.25
2018-09-14T05:24:06.629Z,42.67
2018-09-14T05:26:35.744Z,39.80
2018-09-14T05:29:05.173Z,38.02
2018-09-14T05:31:34.086Z,37.00
2018-09-14T05:34:03.092Z,37.80
2018-09-14T05:36:32.105Z,41.13
2018-09-14T05:39:01.190Z,37.93
2018-09-14T05:41:30.161Z,34.85
2018-09-14T05:43:59.120Z,43.20
2018-09-14T05:46:28.056Z,37.23
2018-09-14T05:48:57.143Z,35.75
2018-09-14T05:51:26.331Z,33.83
2018-09-14T05:53:55.446Z,34.10
2018-09-14T05:56:24.952Z,38.13
2018-09-14T05:58:53.881Z,36.03
2018-09-14T06:01:22.899Z,33.10
2018-09-14T06:03:51.874Z,38.15
2018-09-14T06:06:20.864Z,32.55
2018-09-14T06:08:49.881Z,34.78
2018-09-14T06:11:18.910Z,36.48
2018-09-14T06:13:47.917Z,32.98
2018-09-14T06:16:17.081Z,36.25
2018-09-14T06:18:46.370Z,31.30
2018-09-14T06:21:15.357Z,32.58
2018-09-14T06:23:44.619Z,29.27
2018-09-14T06:26:13.595Z,26.60
2018-09-14T06:28:42.571Z,29.27
2018-09-14T06:31:11.525Z,27.17
2018-09-14T06:33:40.489Z,22.50
2018-09-14T06:36:09.413Z,25.90
2018-09-14T06:38:38.397Z,25.43
2018-09-14T06:41:07.385Z,26.07
2018-09-14T06:43:36.407Z,20.45
2018-09-14T06:46:05.444Z,22.58
2018-09-14T06:48:34.374Z,24.40
2018-09-14T06:51:03.342Z,27.45
2018-09-14T06:53:32.291Z,24.35
2018-09-14T06:56:01.234Z,20.90
2018-09-14T06:58:30.275Z,21.73
2018-09-14T07:00:59.226Z,18.80
2018-09-14T07:03:28.342Z,18.70
2018-09-14T07:05:57.333Z,22.52
2018-09-14T07:08:26.306Z,19.92
2018-09-14T07:10:55.232Z,23.18
2018-09-14T07:13:24.337Z,20.50
2018-09-14T07:15:53.499Z,21.00
2018-09-14T07:18:22.680Z,18.17
2018-09-14T07:20:51.695Z,20.17
2018-09-14T07:23:21.043Z,19.42
2018-09-14T07:25:50.318Z,18.52
2018-09-14T07:28:19.524Z,18.67
2018-09-14T07:30:48.809Z,23.25
2018-09-14T07:33:18.078Z,23.75
2018-09-14T07:35:47.498Z,24.67
2018-09-14T07:38:16.534Z,19.92
2018-09-14T07:40:45.852Z,18.95
2018-09-14T07:43:14.836Z,19.45
2018-09-14T07:45:43.784Z,20.17
2018-09-14T07:48:12.852Z,17.60
2018-09-14T07:50:41.984Z,17.57
2018-09-14T07:53:10.928Z,17.23
2018-09-14T07:55:40.003Z,14.95
2018-09-14T07:58:09.083Z,15.60
2018-09-14T08:00:38.074Z,14.07
2018-09-14T08:03:07.268Z,14.35
2018-09-14T08:05:36.248Z,13.88
2018-09-14T08:08:05.325Z,14.70
2018-09-14T08:10:34.453Z,17.75
2018-09-14T08:13:03.474Z,18.02
2018-09-14T08:15:32.685Z,20.77
2018-09-14T08:18:01.762Z,13.43
2018-09-14T08:20:31.023Z,14.10
2018-09-14T08:23:00.145Z,13.45
2018-09-14T08:25:29.152Z,17.17
2018-09-14T08:27:58.256Z,15.30
2018-09-14T08:30:27.605Z,12.80
2018-09-14T08:32:56.627Z,14.30
2018-09-14T08:35:25.611Z,12.98
2018-09-14T08:37:54.622Z,13.13
2018-09-14T08:40:23.537Z,14.33
2018-09-14T08:42:52.498Z,17.20
2018-09-14T08:45:21.563Z,14.23
2018-09-14T08:47:50.513Z,13.62
2018-09-14T08:50:19.684Z,15.32
2018-09-14T08:52:48.624Z,13.60
2018-09-14T08:55:17.598Z,13.53
2018-09-14T08:57:46.545Z,12.25
2018-09-14T09:00:20.325Z,12.33
2018-09-14T09:02:50.184Z,13.40
2018-09-14T09:05:19.496Z,13.22
2018-09-14T09:07:48.695Z,13.78
2018-09-14T09:10:17.693Z,15.60
2018-09-14T09:12:46.957Z,10.65
2018-09-14T09:15:15.916Z,11.33
2018-09-14T09:17:44.944Z,11.55
2018-09-14T09:20:14.084Z,7.30
2018-09-14T09:22:43.113Z,11.65
2018-09-14T09:25:12.044Z,6.25
2018-09-14T09:27:41.096Z,8.83
2018-09-14T09:30:10.370Z,7.30
2018-09-14T09:32:39.393Z,7.37
2018-09-14T09:35:08.531Z,9.58
2018-09-14T09:37:37.466Z,6.95
2018-09-14T09:40:06.135Z,8.67
2018-09-14T09:42:35.202Z,8.45
2018-09-14T09:45:04.492Z,9.25
2018-09-14T09:47:33.554Z,6.25
2018-09-14T09:50:02.486Z,7.33
2018-09-14T09:52:31.477Z,7.70
2018-09-14T09:55:00.476Z,9.00
2018-09-14T09:57:29.636Z,8.58
2018-09-14T09:59:58.722Z,7.42
2018-09-14T10:02:36.230Z,8.70
2018-09-14T10:05:10.926Z,7.53
2018-09-14T10:07:40.304Z,7.58
2018-09-14T10:10:11.942Z,9.60
2018-09-14T10:12:41.140Z,6.70
2018-09-14T10:15:10.245Z,5.72
2018-09-14T10:17:39.446Z,8.23
2018-09-14T10:20:08.434Z,5.97
2018-09-14T10:22:37.478Z,7.45
2018-09-14T10:25:06.446Z,7.92
2018-09-14T10:27:35.456Z,6.50
2018-09-14T10:30:04.498Z,8.33
2018-09-14T10:32:33.423Z,7.75
2018-09-14T10:35:02.556Z,9.80
2018-09-14T10:37:31.774Z,7.30
2018-09-14T10:40:00.756Z,9.53
2018-09-14T10:42:29.997Z,7.15
2018-09-14T10:44:59.089Z,7.75
2018-09-14T10:47:28.170Z,9.18
2018-09-14T10:49:57.090Z,8.43
2018-09-14T10:52:26.129Z,6.47
2018-09-14T10:54:54.988Z,6.80
2018-09-14T10:57:23.921Z,6.87
2018-09-14T10:59:52.679Z,6.17
2018-09-14T11:02:21.342Z,7.27
2018-09-14T11:04:50.255Z,10.18
2018-09-14T11:07:18.922Z,7.37
2018-09-14T11:09:47.685Z,6.00
2018-09-14T11:12:16.434Z,8.00
2018-09-14T11:14:45.238Z,7.20
2018-09-14T11:17:14.056Z,6.87
2018-09-14T11:19:42.727Z,8.13
2018-09-14T11:22:11.496Z,5.43
2018-09-14T11:24:40.224Z,5.43
2018-09-14T11:27:09.050Z,5.53
2018-09-14T11:29:37.671Z,9.00
2018-09-14T11:32:06.585Z,6.60
2018-09-14T11:34:35.612Z,10.63
2018-09-14T11:37:04.728Z,8.30
2018-09-14T11:39:33.584Z,6.10
2018-09-14T11:42:02.287Z,6.17
2018-09-14T11:44:31.054Z,5.87
2018-09-14T11:46:59.921Z,6.17
2018-09-14T11:49:28.859Z,5.50
2018-09-14T11:51:57.542Z,6.70
2018-09-14T11:54:26.338Z,9.03
2018-09-14T11:56:55.088Z,7.87
2018-09-14T11:59:24.042Z,6.53
2018-09-14T12:01:53.080Z,6.90
2018-09-14T12:04:21.846Z,9.37
2018-09-14T12:06:51.045Z,7.73
2018-09-14T12:09:19.678Z,5.60
2018-09-14T12:11:48.604Z,9.48
2018-09-14T12:14:17.323Z,7.10
2018-09-14T12:16:46.039Z,7.27
2018-09-14T12:19:15.117Z,24.12
2018-09-14T12:21:43.812Z,9.47
2018-09-14T12:24:12.517Z,9.00
2018-09-14T12:26:42.006Z,9.40
2018-09-14T12:29:10.645Z,9.03
2018-09-14T12:31:39.380Z,7.50
2018-09-14T12:34:08.531Z,6.80
2018-09-14T12:36:37.585Z,10.48
2018-09-14T12:39:08.760Z,9.00
2018-09-14T12:41:37.532Z,8.23
2018-09-14T12:44:07.461Z,10.65
2018-09-14T12:46:36.102Z,7.30
2018-09-14T12:49:04.785Z,7.57
2018-09-14T12:51:33.431Z,7.27
2018-09-14T12:54:02.196Z,10.80
2018-09-14T12:56:31.166Z,11.30
2018-09-14T12:58:59.807Z,7.33
2018-09-14T13:01:28.505Z,8.47
2018-09-14T13:03:57.183Z,8.57
2018-09-14T13:06:26.221Z,8.03
2018-09-14T13:08:54.854Z,10.53
2018-09-14T13:11:23.820Z,10.43
2018-09-14T13:13:52.476Z,7.37
2018-09-14T13:16:21.154Z,12.77
2018-09-14T13:18:49.793Z,8.07
2018-09-14T13:21:18.521Z,9.63
2018-09-14T13:23:47.127Z,10.87
2018-09-14T13:26:15.794Z,9.80
2018-09-14T13:28:44.481Z,7.43
2018-09-14T13:31:13.130Z,9.90
2018-09-14T13:33:41.838Z,10.43
2018-09-14T13:36:10.622Z,8.50
2018-09-14T13:38:39.349Z,7.23
2018-09-14T13:41:08.182Z,7.70
2018-09-14T13:43:37.001Z,10.77
2018-09-14T13:46:05.632Z,7.93
2018-09-14T13:48:34.476Z,7.23
2018-09-14T13:51:03.105Z,8.07
2018-09-14T13:53:31.760Z,8.50
2018-09-14T13:56:00.536Z,7.70
2018-09-14T13:58:29.217Z,8.30
2018-09-14T14:00:57.859Z,6.97
2018-09-14T14:03:26.498Z,7.10
2018-09-14T14:05:55.152Z,6.73
2018-09-14T14:08:23.792Z,11.60
2018-09-14T14:10:52.548Z,6.57
2018-09-14T14:13:21.204Z,7.73
2018-09-14T14:15:49.924Z,9.67
2018-09-14T14:18:18.582Z,7.73
2018-09-14T14:20:47.216Z,8.03
2018-09-14T14:23:15.861Z,8.30
2018-09-14T14:25:44.666Z,6.87
2018-09-14T14:28:13.331Z,9.63
2018-09-14T14:30:41.979Z,9.00
2018-09-14T14:33:10.914Z,7.57
2018-09-14T14:35:39.580Z,6.07
2018-09-14T14:38:08.709Z,7.03
2018-09-14T14:40:37.936Z,8.77
2018-09-14T14:43:06.942Z,7.13
2018-09-14T14:45:35.630Z,7.83
2018-09-14T14:48:04.311Z,6.73
2018-09-14T14:50:32.968Z,5.77
2018-09-14T14:53:02.355Z,6.07
2018-09-14T14:55:31.473Z,8.45
2018-09-14T14:58:00.199Z,6.97
2018-09-14T15:00:29.288Z,7.03
2018-09-14T15:02:57.931Z,6.93
2018-09-14T15:05:26.919Z,8.23
2018-09-14T15:07:55.762Z,8.60
2018-09-14T15:10:24.488Z,7.10
2018-09-14T15:12:53.277Z,6.13
2018-09-14T15:15:21.943Z,9.30
2018-09-14T15:17:50.607Z,11.23
2018-09-14T15:20:19.263Z,9.80
2018-09-14T15:22:47.919Z,11.30
2018-09-14T15:25:16.684Z,7.40
2018-09-14T15:27:45.445Z,8.40
2018-09-14T15:30:14.423Z,9.10
2018-09-14T15:32:43.203Z,10.87
2018-09-14T15:35:12.101Z,8.23
2018-09-14T15:37:40.769Z,9.13
2018-09-14T15:40:09.653Z,7.57
2018-09-14T15:42:38.343Z,10.37
2018-09-14T15:45:07.260Z,11.83
2018-09-14T15:47:35.898Z,7.27
2018-09-14T15:50:05.305Z,8.30
2018-09-14T15:52:33.974Z,11.23
2018-09-14T15:55:02.718Z,8.47
2018-09-14T15:57:31.566Z,10.60
2018-09-14T16:00:02.466Z,12.03
2018-09-14T16:02:31.490Z,10.63
2018-09-14T16:05:00.582Z,12.35
2018-09-14T16:07:29.591Z,10.40
2018-09-14T16:09:58.545Z,10.05
2018-09-14T16:12:27.605Z,10.05
2018-09-14T16:14:56.734Z,8.93
2018-09-14T16:17:25.754Z,7.77
2018-09-14T16:19:54.889Z,8.15
2018-09-14T16:22:23.911Z,9.05
2018-09-14T16:24:52.538Z,7.80
2018-09-14T16:27:21.456Z,10.65
2018-09-14T16:29:50.396Z,8.65
2018-09-14T16:32:19.309Z,14.50
2018-09-14T16:34:48.264Z,9.95
2018-09-14T16:37:17.281Z,9.05
2018-09-14T16:39:46.531Z,13.83
2018-09-14T16:42:15.516Z,11.03
2018-09-14T16:44:44.485Z,12.90
2018-09-14T16:47:13.521Z,10.35
2018-09-14T16:49:42.439Z,8.50
2018-09-14T16:52:11.460Z,11.53
2018-09-14T16:54:40.688Z,9.08
2018-09-14T16:57:09.645Z,10.13
2018-09-14T16:59:38.643Z,11.43
2018-09-14T17:02:07.626Z,13.30
2018-09-14T17:04:36.772Z,9.18
2018-09-14T17:07:05.828Z,8.38
2018-09-14T17:09:34.851Z,13.28
2018-09-14T17:14:57.487Z,9.23
2018-09-14T17:17:26.501Z,10.48
2018-09-14T17:19:55.458Z,10.43
2018-09-14T17:22:24.601Z,10.03
2018-09-14T17:24:53.590Z,9.30
2018-09-14T17:27:22.815Z,12.58
2018-09-14T17:29:51.890Z,11.73
2018-09-14T17:32:20.841Z,9.80
2018-09-14T17:34:49.842Z,12.00
2018-09-14T17:37:18.790Z,10.65
2018-09-14T17:39:47.870Z,14.05
2018-09-14T17:42:16.852Z,11.45
2018-09-14T17:44:45.802Z,11.60
2018-09-14T17:47:14.774Z,10.23
2018-09-14T17:49:43.782Z,11.05
2018-09-14T17:52:12.748Z,9.65
2018-09-14T18:01:35.823Z,10.28
2018-09-14T18:04:04.926Z,14.33
2018-09-14T18:06:33.878Z,11.75
2018-09-14T18:09:02.972Z,14.30
2018-09-14T18:11:31.896Z,13.08
2018-09-14T18:14:00.838Z,12.25
2018-09-14T18:16:30.056Z,12.18
2018-09-14T18:18:59.141Z,12.35
2018-09-14T18:21:28.140Z,12.35
2018-09-14T18:23:57.134Z,10.03
2018-09-14T18:26:26.105Z,11.10
2018-09-14T18:28:55.430Z,12.37
2018-09-14T18:31:24.558Z,9.68
2018-09-14T18:33:53.558Z,9.30
2018-09-14T18:36:22.845Z,8.30
2018-09-14T18:38:52.159Z,11.73
2018-09-14T18:41:21.242Z,11.80
2018-09-14T18:43:50.829Z,11.88
2018-09-14T18:46:20.312Z,10.75
2018-09-14T18:48:49.317Z,11.25
2018-09-14T18:51:18.811Z,9.90
2018-09-14T18:53:47.853Z,10.93
2018-09-14T18:56:17.250Z,11.93
2018-09-14T18:58:46.727Z,11.85
2018-09-14T19:01:16.127Z,11.53
2018-09-14T19:03:45.237Z,10.08
2018-09-14T19:06:15.034Z,10.63
2018-09-14T19:08:44.036Z,9.88
2018-09-14T19:11:13.431Z,12.05
2018-09-14T19:13:42.442Z,16.25
2018-09-14T19:16:12.645Z,14.65
2018-09-14T19:18:42.154Z,15.28
2018-09-14T19:21:11.295Z,14.18
2018-09-14T19:23:40.655Z,15.38
2018-09-14T19:26:10.052Z,13.32
2018-09-14T19:28:39.453Z,15.78
2018-09-14T19:31:08.959Z,13.72
2018-09-14T19:33:38.365Z,13.30
2018-09-14T19:36:07.379Z,16.32
2018-09-14T19:38:36.495Z,35.85
2018-09-14T19:41:05.789Z,14.65
2018-09-14T19:43:35.358Z,14.63
2018-09-14T19:46:04.863Z,14.58
2018-09-14T19:48:34.161Z,16.15
2018-09-14T19:51:03.141Z,13.43
2018-09-14T19:53:32.150Z,15.83
2018-09-14T19:56:01.091Z,16.45
2018-09-14T19:58:30.338Z,15.03
2018-09-14T20:00:59.537Z,13.25
2018-09-14T20:03:28.536Z,16.65
2018-09-14T20:05:57.606Z,14.90
2018-09-14T20:08:26.586Z,11.68
2018-09-14T20:10:55.555Z,13.28
2018-09-14T20:13:24.524Z,15.68
2018-09-14T20:15:53.801Z,13.83
2018-09-14T20:18:22.874Z,17.73
2018-09-14T20:20:52.170Z,17.52
2018-09-14T20:23:21.104Z,13.13
2018-09-14T20:25:50.096Z,20.82
2018-09-14T20:28:19.125Z,16.35
2018-09-14T20:30:48.228Z,15.18
2018-09-14T20:33:17.164Z,14.80
2018-09-14T20:35:46.177Z,12.50
2018-09-14T20:38:15.131Z,10.65
2018-09-14T20:40:44.090Z,12.98
2018-09-14T20:43:13.064Z,14.00
2018-09-14T20:45:41.992Z,14.05
2018-09-14T20:48:10.942Z,13.85
2018-09-14T20:50:40.025Z,13.83
2018-09-14T20:53:09.033Z,10.70
2018-09-14T20:55:38.072Z,13.43
2018-09-14T20:58:07.013Z,12.07
2018-09-14T21:00:35.966Z,13.18
2018-09-14T21:03:05.047Z,15.53
2018-09-14T21:05:33.993Z,15.95
2018-09-14T21:08:03.052Z,14.58
2018-09-14T21:10:32.068Z,13.90
2018-09-14T21:13:01.008Z,14.80
2018-09-14T21:15:30.409Z,16.00
2018-09-14T21:17:59.374Z,16.25
2018-09-14T21:20:28.291Z,18.82
2018-09-14T21:22:57.243Z,18.37
2018-09-14T21:25:26.175Z,23.22
2018-09-14T21:27:55.239Z,19.23
2018-09-14T21:30:24.179Z,21.85
2018-09-14T21:32:53.183Z,21.80
2018-09-14T21:35:22.175Z,25.02
2018-09-14T21:37:51.149Z,30.20
2018-09-14T21:40:20.120Z,34.80
2018-09-14T21:42:49.523Z,31.73
2018-09-14T21:45:18.927Z,29.50
2018-09-14T21:47:47.889Z,29.42
2018-09-14T21:50:17.001Z,28.32
2018-09-14T21:52:45.947Z,23.02
2018-09-14T21:55:14.957Z,23.35
2018-09-14T21:57:43.941Z,20.48
2018-09-14T22:00:18.331Z,18.42
2018-09-14T22:02:47.248Z,21.23
2018-09-14T22:05:16.389Z,16.32
2018-09-14T22:07:45.333Z,17.10
2018-09-14T22:10:14.308Z,16.12
2018-09-14T22:12:43.278Z,15.53
2018-09-14T22:15:12.246Z,16.10
2018-09-14T22:17:41.270Z,15.63
2018-09-14T22:20:10.228Z,14.10
2018-09-14T22:22:39.180Z,16.97
2018-09-14T22:25:08.182Z,16.00
2018-09-14T22:27:37.120Z,15.85
2018-09-14T22:30:06.880Z,15.10
2018-09-14T22:32:36.022Z,13.95
2018-09-14T22:35:05.242Z,18.35
2018-09-14T22:37:34.228Z,18.55
2018-09-14T22:40:03.556Z,16.40
2018-09-14T22:42:32.522Z,17.00
2018-09-14T22:45:01.435Z,14.50
2018-09-14T22:47:30.351Z,15.08
2018-09-14T22:49:59.466Z,15.85
2018-09-14T22:52:28.494Z,14.50
2018-09-14T22:54:57.443Z,17.98
2018-09-14T22:57:26.402Z,13.88
2018-09-14T22:59:55.316Z,16.90
2018-09-14T23:02:24.241Z,21.02
2018-09-14T23:04:53.394Z,19.55
2018-09-14T23:07:22.474Z,16.17
2018-09-14T23:09:51.480Z,19.98
2018-09-14T23:12:20.438Z,18.10
2018-09-14T23:14:49.388Z,18.55
2018-09-14T23:17:18.337Z,15.58
2018-09-14T23:19:47.293Z,17.67
2018-09-14T23:22:16.240Z,17.10
2018-09-14T23:24:45.200Z,15.83
2018-09-14T23:27:14.235Z,17.87
2018-09-14T23:29:43.160Z,17.45
2018-09-14T23:32:12.110Z,17.37
2018-09-14T23:34:41.150Z,18.37
2018-09-14T23:37:10.124Z,17.30
2018-09-14T23:39:39.136Z,16.73
2018-09-14T23:42:08.079Z,14.98
2018-09-14T23:44:37.019Z,18.75
2018-09-14T23:47:06.422Z,17.17
2018-09-14T23:49:35.388Z,15.85
2018-09-14T23:52:04.418Z,22.85
2018-09-14T23:54:33.391Z,18.25
2018-09-14T23:57:02.415Z,17.25
2018-09-14T23:59:31.356Z,19.10
